Time;durP1;ratioP1;P1;durP2;ratioP2;P2;SDS_P1;SDS_P2;PMS_P1;PMS_P2;Temp;Humidity;BMP_temperature;BMP_pressure;BME280_temperature;BME280_humidity;BME280_pressure;Samples;Min_cycle;Max_cycle;Signal;HPM_P1;HPM_P2
2022/03/17 00:00:37;;;;;;;;;8.25;7.50;;;;;16.91;55.51;101912.19;5098503;27;61979;-76
2022/03/17 00:03:03;;;;;;;;;9.75;8.75;;;;;16.90;55.42;101916.63;5103557;27;61846;-76
2022/03/17 00:05:28;;;;;;;;;10.25;10.25;;;;;16.82;55.76;101915.44;5103755;27;61747;-76
2022/03/17 00:07:54;;;;;;;;;12.50;11.75;;;;;16.89;55.55;101920.09;5101514;27;63246;-77
2022/03/17 00:10:19;;;;;;;;;15.00;12.50;;;;;16.89;55.67;101935.13;5103355;27;62076;-77
2022/03/17 00:12:47;;;;;;;;;18.00;14.25;;;;;16.78;55.95;101929.38;5103112;27;61962;-76
2022/03/17 00:15:14;;;;;;;;;10.75;10.75;;;;;16.85;55.70;101928.78;5103677;27;61982;-76
2022/03/17 00:17:42;;;;;;;;;11.50;9.50;;;;;16.90;55.56;101939.56;5102512;27;63003;-77
2022/03/17 00:20:10;;;;;;;;;13.00;13.00;;;;;16.77;56.02;101939.09;5103164;27;61825;-76
2022/03/17 00:22:36;;;;;;;;;13.25;11.00;;;;;16.83;55.84;101943.72;5102859;27;62061;-77
2022/03/17 00:25:04;;;;;;;;;18.75;12.25;;;;;16.73;56.21;101944.19;5119412;27;61810;-76
2022/03/17 00:27:30;;;;;;;;;18.50;16.50;;;;;16.76;56.22;101950.53;5101734;27;62089;-76
2022/03/17 00:29:56;;;;;;;;;23.00;17.00;;;;;16.78;56.21;101953.25;5103162;27;61778;-76
2022/03/17 00:32:23;;;;;;;;;20.25;18.50;;;;;16.75;56.24;101955.75;5103038;27;61991;-76
2022/03/17 00:37:34;;;;;;;;;19.75;18.25;;;;;16.62;56.73;101969.41;5102349;27;62572;-76
2022/03/17 00:40:00;;;;;;;;;23.50;19.00;;;;;16.55;57.16;101969.16;5101691;27;61900;-76
2022/03/17 00:42:27;;;;;;;;;28.00;22.50;;;;;16.57;56.98;101977.19;5102506;27;61806;-76
2022/03/17 00:44:54;;;;;;;;;19.00;17.75;;;;;16.59;57.13;101979.91;5101659;27;61924;-76
2022/03/17 00:47:20;;;;;;;;;21.50;17.75;;;;;16.61;57.29;101996.78;5118171;27;63748;-77
2022/03/17 00:49:45;;;;;;;;;20.75;17.75;;;;;16.52;57.17;101989.38;5101399;27;61801;-76
2022/03/17 00:52:11;;;;;;;;;28.75;22.25;;;;;16.46;57.54;102000.59;5102460;27;61723;-76
2022/03/17 00:54:39;;;;;;;;;18.50;18.50;;;;;16.45;57.43;101984.63;5101411;27;62122;-76
2022/03/17 00:57:05;;;;;;;;;21.00;19.25;;;;;16.50;57.34;102001.66;5100380;27;62716;-76
2022/03/17 00:59:31;;;;;;;;;23.00;21.00;;;;;16.50;57.27;102002.53;5102605;27;61900;-76
2022/03/17 01:01:56;;;;;;;;;31.00;23.25;;;;;16.41;58.00;102020.75;5084381;27;61776;-76
2022/03/17 01:04:21;;;;;;;;;24.50;24.25;;;;;16.45;57.59;102016.44;5102554;27;62148;-76
2022/03/17 01:06:47;;;;;;;;;30.50;22.50;;;;;16.47;57.76;102012.09;5103975;27;61947;-76
2022/03/17 01:09:12;;;;;;;;;22.25;20.25;;;;;16.52;57.78;102003.50;5105730;27;61934;-77
2022/03/17 01:11:38;;;;;;;;;19.50;18.25;;;;;16.53;57.40;102010.59;5087931;27;62310;-77
2022/03/17 01:14:03;;;;;;;;;18.50;17.50;;;;;16.40;58.04;102033.91;5106078;27;61877;-76
2022/03/17 01:16:29;;;;;;;;;21.00;20.25;;;;;16.42;57.92;102040.19;5105507;27;61925;-76
2022/03/17 01:18:54;;;;;;;;;19.00;16.75;;;;;16.32;58.39;102025.63;5087533;27;61849;-76
2022/03/17 01:21:20;;;;;;;;;22.50;16.75;;;;;16.41;58.09;102027.75;5106233;27;62081;-76
2022/03/17 01:23:45;;;;;;;;;25.50;21.50;;;;;16.51;57.89;102025.53;5105260;27;61919;-77
2022/03/17 01:26:11;;;;;;;;;18.00;17.00;;;;;16.45;57.87;102027.97;5105248;27;62991;-76
2022/03/17 01:28:36;;;;;;;;;17.50;15.50;;;;;16.41;57.82;102026.03;5105954;27;61838;-76
2022/03/17 01:31:01;;;;;;;;;21.25;19.25;;;;;16.38;57.99;102025.91;5104475;27;62466;-77
2022/03/17 01:33:27;;;;;;;;;26.25;22.25;;;;;16.42;58.13;102029.59;5105953;27;61704;-76
2022/03/17 01:35:52;;;;;;;;;28.75;22.50;;;;;16.36;58.24;102040.81;5087623;27;62093;-76
2022/03/17 01:38:18;;;;;;;;;19.25;13.00;;;;;16.38;57.99;102048.84;5105120;27;61839;-76
2022/03/17 01:40:43;;;;;;;;;23.25;19.75;;;;;16.33;58.51;102046.91;5087363;27;62050;-76
2022/03/17 01:43:09;;;;;;;;;29.25;24.75;;;;;16.36;58.29;102046.13;5087423;27;62120;-76
2022/03/17 01:45:34;;;;;;;;;27.25;23.25;;;;;16.34;58.51;102045.16;5105230;27;62092;-76
2022/03/17 01:48:00;;;;;;;;;24.50;22.00;;;;;16.34;58.13;102043.41;5087139;27;61845;-76
2022/03/17 01:50:26;;;;;;;;;25.00;22.75;;;;;16.36;58.09;102047.03;5105694;27;61854;-76
2022/03/17 01:52:51;;;;;;;;;25.50;19.25;;;;;16.39;58.17;102040.97;5105084;27;61944;-77
2022/03/17 01:55:18;;;;;;;;;22.00;20.50;;;;;16.39;58.01;102054.22;5104682;27;61764;-76
2022/03/17 01:57:44;;;;;;;;;21.00;18.75;;;;;16.46;57.96;102052.72;5086541;27;61997;-76
2022/03/17 02:00:13;;;;;;;;;18.50;18.00;;;;;16.33;58.16;102065.47;5104797;27;61752;-77
2022/03/17 02:02:41;;;;;;;;;19.25;19.25;;;;;16.34;58.23;102066.34;5103288;27;61723;-76
2022/03/17 02:05:07;;;;;;;;;18.50;15.00;;;;;16.45;57.90;102066.78;5085340;27;63461;-76
2022/03/17 02:07:32;;;;;;;;;18.00;18.00;;;;;16.38;57.91;102070.94;5084738;27;61900;-77
2022/03/17 02:09:59;;;;;;;;;24.00;16.00;;;;;16.44;57.88;102070.31;5104577;27;61743;-76
2022/03/17 02:15:09;;;;;;;;;24.25;18.50;;;;;16.40;57.94;102085.16;5103618;27;61758;-76
2022/03/17 02:17:39;;;;;;;;;26.50;17.00;;;;;16.34;57.96;102087.56;5102213;27;61861;-77
2022/03/17 02:20:09;;;;;;;;;21.50;18.25;;;;;16.43;57.97;102089.69;5104557;27;61771;-76
2022/03/17 02:22:40;;;;;;;;;16.75;16.00;;;;;16.46;57.60;102101.31;5103571;27;61771;-76
2022/03/17 02:27:50;;;;;;;;;24.00;19.00;;;;;16.33;57.93;102105.22;5103969;27;61778;-77
2022/03/17 02:30:19;;;;;;;;;15.75;14.75;;;;;16.28;57.90;102117.38;5085680;27;61838;-77
2022/03/17 02:32:45;;;;;;;;;22.00;19.50;;;;;16.34;57.90;102114.06;5085300;27;61760;-77
2022/03/17 02:35:22;;;;;;;;;24.25;20.25;;;;;16.38;57.57;102113.34;5103413;27;62092;-77
2022/03/17 02:37:49;;;;;;;;;21.50;21.25;;;;;16.35;57.70;102113.22;5103274;27;62008;-76
2022/03/17 02:40:14;;;;;;;;;20.00;16.75;;;;;16.28;57.74;102122.66;5085608;27;61819;-76
2022/03/17 02:42:40;;;;;;;;;23.75;19.75;;;;;16.21;58.04;102124.97;5103742;27;61761;-77
2022/03/17 02:45:08;;;;;;;;;21.75;18.75;;;;;16.28;57.79;102109.41;5102992;27;62758;-76
2022/03/17 02:47:34;;;;;;;;;20.00;16.75;;;;;16.25;57.92;102125.16;5102044;27;61957;-76
2022/03/17 02:49:59;;;;;;;;;21.25;19.00;;;;;16.25;58.31;102121.63;5103671;27;61760;-77
2022/03/17 02:52:26;;;;;;;;;14.00;12.75;;;;;16.23;57.88;102137.44;5084558;27;61843;-77
2022/03/17 02:54:52;;;;;;;;;19.00;19.00;;;;;16.25;57.89;102133.13;5102567;27;62068;-76
2022/03/17 02:57:19;;;;;;;;;26.00;24.25;;;;;16.26;57.78;102134.94;5103065;27;62046;-76
2022/03/17 02:59:46;;;;;;;;;21.75;19.75;;;;;16.28;57.70;102135.00;5045583;27;1280417;-76
2022/03/17 03:02:14;;;;;;;;;18.75;17.50;;;;;16.31;57.41;102132.50;5104799;27;61842;-76
2022/03/17 03:04:40;;;;;;;;;27.25;18.00;;;;;16.30;57.65;102138.63;5102545;27;63183;-76
2022/03/17 03:07:06;;;;;;;;;19.50;17.50;;;;;16.28;57.68;102141.22;5104058;27;61805;-76
2022/03/17 03:09:32;;;;;;;;;21.50;18.25;;;;;16.27;57.48;102144.69;5104162;27;62242;-76
2022/03/17 03:11:58;;;;;;;;;23.00;19.00;;;;;16.25;57.27;102154.31;5103353;27;61778;-77
2022/03/17 03:14:24;;;;;;;;;22.00;18.25;;;;;16.17;57.30;102152.19;5102368;27;64897;-77
2022/03/17 03:16:50;;;;;;;;;12.25;11.00;;;;;16.07;57.39;102159.72;5104406;27;62151;-77
2022/03/17 03:19:15;;;;;;;;;17.50;17.00;;;;;15.99;57.37;102165.53;5103265;27;62053;-77
2022/03/17 03:21:43;;;;;;;;;24.75;19.25;;;;;16.01;57.06;102170.06;5103567;27;61822;-76
2022/03/17 03:24:13;;;;;;;;;21.25;17.75;;;;;15.92;57.26;102173.19;5103306;27;61990;-77
2022/03/17 03:26:41;;;;;;;;;20.25;18.75;;;;;15.92;57.03;102167.91;5119655;27;61928;-76
2022/03/17 03:29:17;;;;;;;;;17.25;15.75;;;;;15.78;57.01;102173.41;5103133;27;62015;-77
2022/03/17 03:31:42;;;;;;;;;21.50;17.00;;;;;15.78;57.16;102173.41;5102848;27;61783;-76
2022/03/17 03:34:08;;;;;;;;;15.25;14.00;;;;;15.76;56.79;102177.72;5102115;27;63535;-76
2022/03/17 03:39:17;;;;;;;;;21.00;17.25;;;;;15.81;56.79;102190.34;5103886;27;62044;-76
2022/03/17 03:41:43;;;;;;;;;15.75;15.00;;;;;15.78;56.67;102191.94;5104102;27;62158;-76
2022/03/17 03:44:12;;;;;;;;;17.50;15.00;;;;;15.72;56.09;102212.03;5102992;27;62096;-76
2022/03/17 03:46:38;;;;;;;;;16.75;16.75;;;;;15.52;56.46;102210.13;5102386;27;62147;-76
2022/03/17 03:49:03;;;;;;;;;17.00;12.75;;;;;15.59;56.45;102216.63;5103336;27;61916;-77
2022/03/17 03:51:29;;;;;;;;;16.00;15.00;;;;;15.48;56.02;102222.31;5103912;27;62227;-76
2022/03/17 03:54:13;;;;;;;;;24.50;12.50;;;;;15.40;56.02;102226.31;5102395;27;62036;-76
2022/03/17 03:56:47;;;;;;;;;13.00;10.25;;;;;15.36;55.16;102226.09;5103299;27;61979;-76
2022/03/17 03:59:17;;;;;;;;;11.00;8.50;;;;;15.37;55.25;102234.13;5102248;27;61968;-76
2022/03/17 04:01:43;;;;;;;;;9.00;9.00;;;;;15.45;54.62;102230.13;5102333;27;62113;-76
2022/03/17 04:04:09;;;;;;;;;9.75;7.75;;;;;15.53;54.45;102247.28;5102427;27;61724;-76
2022/03/17 04:06:40;;;;;;;;;11.25;7.50;;;;;15.42;54.09;102247.56;5103732;27;61866;-76
2022/03/17 04:09:05;;;;;;;;;6.75;6.00;;;;;15.44;54.27;102251.19;5103393;27;61985;-76
2022/03/17 04:11:31;;;;;;;;;9.50;7.00;;;;;15.40;53.95;102254.53;5103850;27;62040;-77
2022/03/17 04:13:56;;;;;;;;;10.75;9.25;;;;;15.32;54.06;102267.41;5102641;27;62194;-76
2022/03/17 04:16:22;;;;;;;;;9.00;8.00;;;;;15.26;54.10;102269.75;5103440;27;62031;-76
2022/03/17 04:18:47;;;;;;;;;9.75;9.00;;;;;15.30;54.22;102264.69;5101687;27;61883;-76
2022/03/17 04:21:12;;;;;;;;;5.75;5.75;;;;;15.27;54.47;102264.50;5103588;27;62441;-76
2022/03/17 04:23:38;;;;;;;;;11.00;9.00;;;;;15.31;54.42;102278.81;5101953;27;61999;-76
2022/03/17 04:26:03;;;;;;;;;9.75;9.00;;;;;15.33;54.24;102283.31;5103045;27;61851;-77
2022/03/17 04:28:29;;;;;;;;;12.50;12.00;;;;;15.28;54.33;102286.59;5103191;27;61989;-77
2022/03/17 04:30:54;;;;;;;;;16.00;9.75;;;;;15.28;54.26;102290.16;5103490;27;62090;-76
2022/03/17 04:33:20;;;;;;;;;14.25;10.25;;;;;15.30;54.52;102295.53;5102149;27;62229;-77
2022/03/17 04:35:45;;;;;;;;;9.00;8.50;;;;;15.37;54.20;102299.38;5101692;27;61894;-77
2022/03/17 04:38:10;;;;;;;;;11.25;9.50;;;;;15.36;54.32;102290.53;5102656;27;61807;-76
2022/03/17 04:40:36;;;;;;;;;9.50;9.50;;;;;15.33;54.20;102307.13;5103024;27;62111;-77
2022/03/17 04:43:01;;;;;;;;;10.50;10.50;;;;;15.36;54.00;102313.41;5100929;27;62022;-77
2022/03/17 04:45:27;;;;;;;;;13.00;8.50;;;;;15.31;54.20;102314.09;5102830;27;62022;-77
2022/03/17 04:47:52;;;;;;;;;10.00;10.00;;;;;15.31;54.05;102315.84;5101372;27;61939;-77
2022/03/17 04:50:18;;;;;;;;;12.50;9.25;;;;;15.35;54.25;102320.47;5103201;27;61969;-76
2022/03/17 04:55:27;;;;;;;;;8.50;7.50;;;;;15.39;53.90;102330.38;5102624;27;61727;-76
2022/03/17 04:57:52;;;;;;;;;15.25;9.00;;;;;15.45;53.90;102333.31;5102556;27;62240;-76
2022/03/17 05:00:18;;;;;;;;;9.25;8.25;;;;;15.47;53.56;102326.38;5118692;27;61803;-76
2022/03/17 05:02:43;;;;;;;;;8.25;6.00;;;;;15.53;53.62;102331.97;5101873;27;62101;-76
2022/03/17 05:05:09;;;;;;;;;17.75;9.00;;;;;15.58;53.18;102342.75;5102493;27;61912;-76
2022/03/17 05:07:35;;;;;;;;;11.00;8.50;;;;;15.56;53.29;102339.13;5102253;27;61949;-77
2022/03/17 05:10:01;;;;;;;;;8.25;7.00;;;;;15.51;53.14;102343.28;5101349;27;61789;-76
2022/03/17 05:12:27;;;;;;;;;12.25;8.75;;;;;15.46;53.27;102347.44;5100707;27;65037;-76
2022/03/17 05:14:52;;;;;;;;;8.25;6.75;;;;;15.35;53.46;102349.56;5101024;27;61946;-76
2022/03/17 05:17:18;;;;;;;;;8.75;7.00;;;;;15.33;53.64;102354.75;5102241;27;62488;-76
2022/03/17 05:19:43;;;;;;;;;5.75;5.75;;;;;15.32;53.79;102363.56;5101306;27;61798;-76
2022/03/17 05:22:08;;;;;;;;;9.00;8.25;;;;;15.29;54.04;102365.13;5102021;27;62912;-76
2022/03/17 05:24:34;;;;;;;;;9.00;8.75;;;;;15.18;54.11;102372.50;5101894;27;61719;-76
2022/03/17 05:26:59;;;;;;;;;11.75;6.75;;;;;15.15;54.28;102374.13;5102030;27;62355;-76
2022/03/17 05:29:25;;;;;;;;;8.50;7.50;;;;;15.23;54.16;102376.31;5102795;27;62074;-76
2022/03/17 05:31:50;;;;;;;;;9.75;6.00;;;;;15.20;54.22;102377.88;5099872;27;64720;-77
2022/03/17 05:34:16;;;;;;;;;8.00;6.25;;;;;15.20;53.97;102388.47;5101998;27;61901;-76
2022/03/17 05:36:41;;;;;;;;;10.75;9.00;;;;;15.16;54.05;102383.84;5102418;27;61798;-76
2022/03/17 05:39:07;;;;;;;;;6.25;6.25;;;;;15.05;53.88;102388.59;5100772;27;62153;-76
2022/03/17 05:41:32;;;;;;;;;6.75;6.75;;;;;14.99;53.95;102399.75;5100216;27;62047;-76
2022/03/17 05:43:58;;;;;;;;;6.00;6.00;;;;;14.90;54.27;102399.28;5100774;27;61782;-76
2022/03/17 05:46:25;;;;;;;;;3.50;3.50;;;;;14.76;54.53;102400.25;5102061;27;62313;-76
2022/03/17 05:48:53;;;;;;;;;8.25;6.50;;;;;14.80;54.72;102400.50;5118259;27;62198;-76
2022/03/17 05:51:18;;;;;;;;;9.00;7.00;;;;;14.83;54.35;102419.19;5101965;27;62716;-76
2022/03/17 05:53:44;;;;;;;;;7.00;6.25;;;;;14.83;54.27;102407.72;5103459;27;62019;-77
2022/03/17 05:56:09;;;;;;;;;9.25;6.25;;;;;14.82;54.56;102413.81;5105192;27;62090;-76
2022/03/17 05:58:34;;;;;;;;;7.50;5.50;;;;;14.84;54.75;102430.66;5105897;27;61764;-76
2022/03/17 06:01:00;;;;;;;;;8.75;6.75;;;;;14.83;54.45;102440.34;5104453;27;61845;-76
2022/03/17 06:03:26;;;;;;;;;7.25;3.50;;;;;14.74;54.44;102442.50;5105509;27;61932;-81
2022/03/17 06:05:51;;;;;;;;;7.75;6.75;;;;;14.68;54.54;102452.75;5105493;27;61920;-80
2022/03/17 06:08:17;;;;;;;;;9.00;8.00;;;;;14.62;54.60;102448.00;5086966;27;62458;-84
2022/03/17 06:10:42;;;;;;;;;7.50;7.50;;;;;14.61;54.86;102455.84;5082786;28;63592;-84
2022/03/17 06:13:08;;;;;;;;;8.00;6.75;;;;;14.51;54.55;102451.78;5072733;28;61852;-83
2022/03/17 06:15:34;;;;;;;;;7.25;7.00;;;;;14.51;54.60;102463.25;5046205;28;62134;-80
2022/03/17 06:18:02;;;;;;;;;9.50;5.25;;;;;14.58;54.29;102469.81;5064942;28;61784;-81
2022/03/17 06:20:30;;;;;;;;;9.50;8.00;;;;;14.64;54.22;102479.81;5063846;28;62111;-82
2022/03/17 06:23:04;;;;;;;;;9.00;6.00;;;;;14.62;54.12;102484.13;5061922;28;61871;-76
2022/03/17 06:25:31;;;;;;;;;6.00;3.00;;;;;14.61;53.02;102479.63;5045072;28;61796;-77
2022/03/17 06:27:57;;;;;;;;;14.50;9.00;;;;;14.57;52.90;102491.78;5063205;28;61945;-76
2022/03/17 06:30:26;;;;;;;;;7.50;6.00;;;;;14.46;52.53;102507.00;5061705;28;63171;-78
2022/03/17 06:32:54;;;;;;;;;8.75;5.00;;;;;14.47;52.13;102513.19;5064223;28;61904;-79
2022/03/17 06:35:25;;;;;;;;;5.00;5.00;;;;;14.47;51.97;102515.84;5064375;28;62266;-74
2022/03/17 06:37:53;;;;;;;;;22.75;15.75;;;;;14.52;52.10;102514.34;5065793;28;62018;-75
2022/03/17 06:40:19;;;;;;;;;32.75;28.25;;;;;14.60;52.36;102530.69;5065105;28;62152;-75
2022/03/17 06:42:46;;;;;;;;;6.75;5.00;;;;;14.53;51.40;102530.31;5070944;28;63178;-76
2022/03/17 06:45:12;;;;;;;;;6.50;5.00;;;;;14.59;52.00;102542.06;5084100;28;61919;-77
2022/03/17 06:47:38;;;;;;;;;5.75;5.75;;;;;14.64;51.82;102536.22;5084457;28;61704;-78
2022/03/17 06:50:05;;;;;;;;;7.00;7.00;;;;;14.76;51.82;102553.59;5065349;28;63734;-77
2022/03/17 06:52:31;;;;;;;;;6.75;6.75;;;;;14.80;51.55;102552.94;5083859;28;61939;-81
2022/03/17 06:54:56;;;;;;;;;15.25;14.25;;;;;14.86;50.83;102554.19;5088543;27;61918;-78
2022/03/17 06:57:23;;;;;;;;;11.50;10.50;;;;;14.86;50.85;102554.19;5093122;27;61796;-78
2022/03/17 06:59:49;;;;;;;;;6.50;6.00;;;;;14.91;50.98;102558.00;5102127;27;63298;-78
2022/03/17 07:02:15;;;;;;;;;11.75;8.00;;;;;14.87;50.51;102573.63;5102654;27;61802;-78
2022/03/17 07:04:41;;;;;;;;;11.75;6.75;;;;;14.85;51.86;102567.34;5102350;27;62242;-83
2022/03/17 07:07:07;;;;;;;;;4.00;2.75;;;;;14.89;51.60;102574.63;5102393;27;62028;-84
2022/03/17 07:09:34;;;;;;;;;5.00;5.00;;;;;14.88;51.33;102578.06;5103236;27;61829;-83
2022/03/17 07:11:59;;;;;;;;;11.75;7.50;;;;;14.97;51.51;102575.03;5102119;27;62200;-83
2022/03/17 07:14:24;;;;;;;;;9.25;9.00;;;;;14.99;50.60;102581.31;5136510;27;61944;-83
2022/03/17 07:16:50;;;;;;;;;15.50;10.75;;;;;15.02;50.28;102585.03;5104122;27;62037;-83
2022/03/17 07:19:16;;;;;;;;;28.50;25.25;;;;;15.07;50.60;102580.91;5101644;27;64394;-83
2022/03/17 07:21:41;;;;;;;;;19.25;17.00;;;;;15.01;50.47;102587.59;5103084;27;61930;-83
2022/03/17 07:24:08;;;;;;;;;19.00;16.25;;;;;15.03;50.68;102593.88;5102481;27;61969;-87
2022/03/17 07:26:33;;;;;;;;;13.00;11.00;;;;;15.04;50.53;102591.34;5103767;27;62194;-77
2022/03/17 07:29:00;;;;;;;;;19.25;13.75;;;;;15.11;50.54;102608.44;5103641;27;61808;-77
2022/03/17 07:31:26;;;;;;;;;7.00;7.00;;;;;15.11;50.63;102614.63;5099505;27;61771;-76
2022/03/17 07:33:51;;;;;;;;;8.25;8.00;;;;;15.03;50.19;102615.03;5084061;27;61643;-78
2022/03/17 07:36:17;;;;;;;;;9.00;6.00;;;;;15.02;50.78;102613.22;5084178;27;62086;-79
2022/03/17 07:38:42;;;;;;;;;6.75;6.75;;;;;15.02;50.23;102616.78;5081155;28;63439;-82
2022/03/17 07:41:08;;;;;;;;;9.00;8.75;;;;;15.04;50.18;102623.06;5083692;27;61815;-82
2022/03/17 07:43:33;;;;;;;;;7.75;5.00;;;;;15.11;50.18;102619.94;5116385;27;61956;-82
2022/03/17 07:45:59;;;;;;;;;6.25;5.00;;;;;15.13;49.94;102625.31;5082679;27;62153;-81
2022/03/17 07:48:24;;;;;;;;;9.50;7.50;;;;;15.06;50.08;102629.34;5115846;27;63751;-81
2022/03/17 07:50:50;;;;;;;;;6.75;6.00;;;;;14.96;50.17;102628.75;5083569;27;61896;-82
2022/03/17 07:53:16;;;;;;;;;8.00;6.00;;;;;15.03;50.14;102636.19;5082881;27;62077;-82
2022/03/17 07:55:43;;;;;;;;;7.00;6.00;;;;;15.13;50.14;102642.09;5081244;28;61760;-82
2022/03/17 07:58:10;;;;;;;;;8.50;8.25;;;;;15.01;50.04;102641.38;5081889;27;62951;-81
2022/03/17 08:00:39;;;;;;;;;11.00;6.00;;;;;14.99;50.13;102650.97;5116216;27;62005;-82
2022/03/17 08:03:05;;;;;;;;;10.50;9.25;;;;;15.02;49.96;102645.88;5082290;28;61955;-81
2022/03/17 08:05:31;;;;;;;;;5.00;4.50;;;;;14.99;49.94;102650.97;5083725;27;62059;-82
2022/03/17 08:07:59;;;;;;;;;14.50;8.75;;;;;15.03;50.08;102652.06;5082849;27;62041;-82
2022/03/17 08:10:25;;;;;;;;;14.00;7.25;;;;;15.05;50.13;102655.72;5116337;27;61784;-82
2022/03/17 08:12:50;;;;;;;;;8.50;6.00;;;;;15.05;50.01;102664.53;5083670;27;61942;-82
2022/03/17 08:15:16;;;;;;;;;10.25;8.00;;;;;15.21;50.02;102668.03;5083126;27;61728;-81
2022/03/17 08:17:42;;;;;;;;;7.50;7.50;;;;;15.23;49.40;102674.31;5081553;28;63960;-82
2022/03/17 08:20:08;;;;;;;;;10.00;6.75;;;;;15.27;49.52;102676.31;5116411;27;62019;-82
2022/03/17 08:22:34;;;;;;;;;7.00;7.00;;;;;15.37;49.28;102685.69;5116787;27;61805;-81
2022/03/17 08:24:59;;;;;;;;;10.00;6.00;;;;;15.42;49.66;102686.84;5081699;28;61823;-82
2022/03/17 08:27:25;;;;;;;;;9.00;7.00;;;;;15.34;49.03;102695.28;5082333;27;61904;-82
2022/03/17 08:29:51;;;;;;;;;9.25;6.50;;;;;15.30;48.85;102693.28;5083366;27;61843;-81
2022/03/17 08:32:16;;;;;;;;;7.25;7.25;;;;;15.39;49.03;102699.94;5082136;28;61849;-81
2022/03/17 08:34:41;;;;;;;;;8.00;5.00;;;;;15.37;48.90;102705.13;5083615;27;61731;-82
2022/03/17 08:37:07;;;;;;;;;10.00;6.50;;;;;15.48;49.55;102709.25;5082505;28;62001;-82
2022/03/17 08:39:32;;;;;;;;;10.00;6.75;;;;;15.61;48.68;102715.25;5082399;27;61943;-81
2022/03/17 08:41:58;;;;;;;;;9.00;7.00;;;;;15.70;48.50;102718.38;5116271;27;61819;-81
2022/03/17 08:44:24;;;;;;;;;8.50;8.00;;;;;15.78;48.43;102726.78;5083357;28;61829;-81
2022/03/17 08:49:34;;;;;;;;;9.00;6.25;;;;;15.97;47.46;102729.59;5083005;28;62025;-81
2022/03/17 08:52:01;;;;;;;;;5.50;5.50;;;;;15.97;47.42;102740.19;5083256;27;61806;-82
2022/03/17 08:54:29;;;;;;;;;6.00;5.00;;;;;16.02;47.68;102746.63;5114972;27;62089;-82
2022/03/17 08:57:00;;;;;;;;;9.25;9.25;;;;;15.95;47.35;102748.06;5081970;27;62872;-82
2022/03/17 08:59:44;;;;;;;;;5.75;4.75;;;;;16.09;47.83;102756.75;5081470;28;61892;-82
2022/03/17 09:02:14;;;;;;;;;6.00;6.00;;;;;16.15;47.15;102754.44;5081825;28;62002;-82
2022/03/17 09:04:40;;;;;;;;;6.00;5.00;;;;;16.20;46.68;102757.31;5083342;28;61933;-81
2022/03/17 09:07:06;;;;;;;;;6.00;6.00;;;;;16.28;47.05;102757.72;5115427;27;64661;-81
2022/03/17 09:09:37;;;;;;;;;7.25;6.25;;;;;16.40;46.57;102758.38;5081900;28;61758;-82
2022/03/17 09:12:05;;;;;;;;;5.00;5.00;;;;;16.42;46.12;102763.75;5083273;27;61792;-82
2022/03/17 09:14:40;;;;;;;;;9.25;7.00;;;;;16.47;46.31;102773.75;5081620;28;62295;-81
2022/03/17 09:17:06;;;;;;;;;8.25;7.75;;;;;16.56;46.45;102766.28;5115110;27;63889;-81
2022/03/17 09:19:32;;;;;;;;;8.50;7.25;;;;;16.60;46.36;102769.09;5081368;28;61960;-82
2022/03/17 09:21:58;;;;;;;;;7.00;7.00;;;;;16.69;45.96;102766.94;5083003;27;62012;-81
2022/03/17 09:24:24;;;;;;;;;8.75;7.25;;;;;16.55;45.71;102771.50;5115204;27;62159;-82
2022/03/17 09:26:49;;;;;;;;;9.25;7.00;;;;;16.55;45.86;102780.38;5115317;27;63685;-81
2022/03/17 09:29:16;;;;;;;;;9.75;6.50;;;;;16.67;46.14;102787.16;5085050;28;61794;-82
2022/03/17 09:31:42;;;;;;;;;9.00;5.75;;;;;16.79;46.12;102787.75;5119280;27;61840;-82
2022/03/17 09:34:07;;;;;;;;;10.50;10.50;;;;;16.91;45.76;102799.03;5084729;28;61823;-81
2022/03/17 09:36:33;;;;;;;;;8.25;6.50;;;;;17.01;45.98;102797.78;5118497;27;63779;-82
2022/03/17 09:41:43;;;;;;;;;10.75;5.50;;;;;16.96;45.10;102813.44;5086266;28;61764;-82
2022/03/17 09:44:08;;;;;;;;;9.75;8.25;;;;;16.96;44.61;102815.19;5084678;28;61867;-81
2022/03/17 09:46:35;;;;;;;;;10.25;7.75;;;;;16.93;45.21;102815.03;5085458;28;61843;-82
2022/03/17 09:49:04;;;;;;;;;9.00;9.00;;;;;17.03;44.73;102808.44;5084753;28;62056;-81
2022/03/17 09:51:30;;;;;;;;;11.25;9.25;;;;;17.05;44.76;102805.06;5118357;27;62167;-81
2022/03/17 09:54:00;;;;;;;;;9.25;7.50;;;;;17.13;44.75;102811.63;5084004;28;61889;-81
2022/03/17 09:56:27;;;;;;;;;17.00;10.00;;;;;17.18;44.80;102814.50;5083319;28;63717;-81
2022/03/17 09:58:58;;;;;;;;;8.75;6.00;;;;;17.17;45.70;102810.97;5084111;27;61884;-81
2022/03/17 10:01:28;;;;;;;;;7.00;6.00;;;;;17.16;44.81;102810.91;5084576;28;61785;-81
2022/03/17 10:04:03;;;;;;;;;13.50;7.50;;;;;17.21;44.91;102817.34;5084325;28;62293;-81
2022/03/17 10:06:29;;;;;;;;;9.50;8.00;;;;;17.33;44.21;102825.91;5084798;27;61756;-81
2022/03/17 10:08:57;;;;;;;;;5.25;5.25;;;;;17.29;43.94;102823.94;5083891;28;62021;-81
2022/03/17 10:11:30;;;;;;;;;5.50;5.25;;;;;17.33;44.42;102817.97;5084150;28;61881;-82
2022/03/17 10:13:56;;;;;;;;;5.75;5.75;;;;;17.45;44.11;102819.38;5085762;27;61724;-81
2022/03/17 10:16:25;;;;;;;;;7.00;6.75;;;;;17.47;43.33;102823.03;5084765;27;62783;-81
2022/03/17 10:19:02;;;;;;;;;6.00;5.00;;;;;17.59;43.86;102820.97;5118712;27;61980;-81
2022/03/17 10:21:28;;;;;;;;;9.50;5.75;;;;;17.67;43.33;102824.88;5085155;27;61963;-81
2022/03/17 10:24:02;;;;;;;;;8.00;7.00;;;;;17.75;43.21;102826.16;5117936;27;61783;-81
2022/03/17 10:26:54;;;;;;;;;5.50;5.50;;;;;17.76;43.64;102833.31;5082377;28;65014;-81
2022/03/17 10:29:22;;;;;;;;;5.50;5.00;;;;;17.81;43.41;102837.94;5085650;27;61815;-82
2022/03/17 10:32:05;;;;;;;;;9.25;5.50;;;;;17.81;43.31;102838.84;5118387;27;62007;-81
2022/03/17 10:34:49;;;;;;;;;7.25;7.25;;;;;17.99;42.96;102841.47;5083976;28;62175;-81
2022/03/17 10:37:18;;;;;;;;;9.00;5.25;;;;;17.92;42.81;102842.94;5082934;28;63964;-82
2022/03/17 10:39:50;;;;;;;;;9.75;7.00;;;;;17.91;43.14;102861.47;5117726;27;61755;-82
2022/03/17 10:42:21;;;;;;;;;5.00;4.00;;;;;17.76;42.94;102857.22;5118155;27;61955;-81
2022/03/17 10:44:47;;;;;;;;;7.75;5.00;;;;;17.58;42.34;102859.88;5083757;28;61961;-81
2022/03/17 10:47:12;;;;;;;;;10.75;8.75;;;;;17.70;43.03;102856.03;5082930;28;64031;-81
2022/03/17 10:49:38;;;;;;;;;10.50;7.25;;;;;17.85;43.17;102853.22;5084571;27;61924;-81
2022/03/17 10:52:04;;;;;;;;;8.25;6.50;;;;;17.97;42.64;102856.44;5083593;28;61887;-81
2022/03/17 10:54:29;;;;;;;;;6.50;6.50;;;;;18.05;42.24;102857.72;5117427;27;61928;-82
2022/03/17 10:57:02;;;;;;;;;8.00;5.25;;;;;17.89;42.21;102858.75;5116555;27;61753;-81
2022/03/17 10:59:43;;;;;;;;;9.25;7.00;;;;;17.70;41.66;102872.84;5117401;27;62011;-81
2022/03/17 11:02:13;;;;;;;;;6.25;5.75;;;;;17.75;42.02;102878.38;5084689;27;61842;-81
2022/03/17 11:04:41;;;;;;;;;7.50;5.00;;;;;17.76;42.15;102872.25;5082254;28;61850;-81
2022/03/17 11:07:13;;;;;;;;;9.75;6.00;;;;;17.83;42.72;102877.06;5083738;27;61936;-81
2022/03/17 11:09:40;;;;;;;;;12.50;9.50;;;;;17.81;42.14;102880.44;5117209;27;61967;-81
2022/03/17 11:12:17;;;;;;;;;9.00;7.50;;;;;17.71;42.67;102881.72;5084660;28;62285;-81
2022/03/17 11:14:47;;;;;;;;;7.50;6.50;;;;;17.81;42.77;102886.66;5083477;28;62070;-81
2022/03/17 11:17:16;;;;;;;;;6.50;6.50;;;;;17.84;42.54;102885.94;5116816;27;63646;-81
2022/03/17 11:19:44;;;;;;;;;9.25;8.00;;;;;17.78;42.46;102894.47;5082346;28;61867;-81
2022/03/17 11:22:20;;;;;;;;;7.25;6.75;;;;;17.86;42.70;102889.56;5117665;27;61960;-82
2022/03/17 11:24:46;;;;;;;;;7.00;7.00;;;;;17.95;41.67;102880.31;5117131;27;61877;-82
2022/03/17 11:27:13;;;;;;;;;9.00;6.00;;;;;18.05;42.47;102892.25;5083422;27;62140;-81
2022/03/17 11:29:48;;;;;;;;;11.25;6.50;;;;;18.16;41.80;102891.00;5084489;27;62039;-81
2022/03/17 11:32:31;;;;;;;;;8.00;6.75;;;;;18.31;42.30;102898.81;5084164;28;61959;-81
2022/03/17 11:35:17;;;;;;;;;11.25;7.75;;;;;18.47;42.23;102895.13;5083971;27;61849;-82